sensor_id;sensor_type;location;lat;lon;timestamp;P1;durP1;ratioP1;P2;durP2;ratioP2
31182;SDS011;17813;0.000;0.000;2022-09-17T00:00:50;2.70;;;1.10;;
31182;SDS011;17813;0.000;0.000;2022-09-17T00:03:25;3.00;;;1.23;;
31182;SDS011;17813;0.000;0.000;2022-09-17T00:06:13;2.33;;;1.10;;
31182;SDS011;17813;0.000;0.000;2022-09-17T00:08:48;3.47;;;1.20;;
31182;SDS011;17813;0.000;0.000;2022-09-17T00:11:29;4.43;;;1.47;;
31182;SDS011;17813;0.000;0.000;2022-09-17T00:14:14;2.37;;;1.37;;
31182;SDS011;17813;0.000;0.000;2022-09-17T00:16:52;1.73;;;1.20;;
31182;SDS011;17813;0.000;0.000;2022-09-17T00:19:41;5.70;;;1.27;;
31182;SDS011;17813;0.000;0.000;2022-09-17T00:22:09;2.53;;;1.40;;
31182;SDS011;17813;0.000;0.000;2022-09-17T00:24:36;1.67;;;1.00;;
31182;SDS011;17813;0.000;0.000;2022-09-17T00:31:09;2.83;;;1.20;;
31182;SDS011;17813;0.000;0.000;2022-09-17T00:34:01;2.87;;;1.13;;
31182;SDS011;17813;0.000;0.000;2022-09-17T00:36:29;4.80;;;1.17;;
31182;SDS011;17813;0.000;0.000;2022-09-17T00:39:37;4.03;;;1.30;;
31182;SDS011;17813;0.000;0.000;2022-09-17T00:43:03;3.60;;;1.30;;
31182;SDS011;17813;0.000;0.000;2022-09-17T00:49:16;4.30;;;1.37;;
31182;SDS011;17813;0.000;0.000;2022-09-17T00:53:12;2.07;;;1.20;;
31182;SDS011;17813;0.000;0.000;2022-09-17T00:59:19;4.93;;;1.33;;
31182;SDS011;17813;0.000;0.000;2022-09-17T01:01:58;4.40;;;1.27;;
31182;SDS011;17813;0.000;0.000;2022-09-17T01:04:28;2.53;;;1.40;;
31182;SDS011;17813;0.000;0.000;2022-09-17T01:22:58;2.77;;;1.23;;
31182;SDS011;17813;0.000;0.000;2022-09-17T01:28:32;3.00;;;1.20;;
31182;SDS011;17813;0.000;0.000;2022-09-17T01:31:52;3.63;;;1.30;;
31182;SDS011;17813;0.000;0.000;2022-09-17T01:34:53;3.27;;;1.37;;
31182;SDS011;17813;0.000;0.000;2022-09-17T01:48:28;3.03;;;1.50;;
31182;SDS011;17813;0.000;0.000;2022-09-17T01:50:39;2.23;;;1.47;;
31182;SDS011;17813;0.000;0.000;2022-09-17T01:59:48;2.17;;;1.27;;
31182;SDS011;17813;0.000;0.000;2022-09-17T02:03:08;2.47;;;1.50;;
31182;SDS011;17813;0.000;0.000;2022-09-17T02:09:21;2.57;;;1.40;;
31182;SDS011;17813;0.000;0.000;2022-09-17T02:11:54;3.50;;;1.50;;
31182;SDS011;17813;0.000;0.000;2022-09-17T02:14:35;2.63;;;1.50;;
31182;SDS011;17813;0.000;0.000;2022-09-17T02:17:11;3.53;;;1.60;;
31182;SDS011;17813;0.000;0.000;2022-09-17T02:19:50;2.50;;;1.43;;
31182;SDS011;17813;0.000;0.000;2022-09-17T02:22:20;2.17;;;1.47;;
31182;SDS011;17813;0.000;0.000;2022-09-17T02:26:03;3.57;;;1.60;;
31182;SDS011;17813;0.000;0.000;2022-09-17T02:31:12;2.77;;;1.47;;
31182;SDS011;17813;0.000;0.000;2022-09-17T02:33:43;2.33;;;1.47;;
31182;SDS011;17813;0.000;0.000;2022-09-17T02:36:14;2.83;;;1.50;;
31182;SDS011;17813;0.000;0.000;2022-09-17T02:38:42;2.30;;;1.60;;
31182;SDS011;17813;0.000;0.000;2022-09-17T02:41:22;3.83;;;1.60;;
31182;SDS011;17813;0.000;0.000;2022-09-17T02:44:11;4.57;;;1.77;;
31182;SDS011;17813;0.000;0.000;2022-09-17T02:49:53;2.30;;;1.40;;
31182;SDS011;17813;0.000;0.000;2022-09-17T03:00:42;2.73;;;1.60;;
31182;SDS011;17813;0.000;0.000;2022-09-17T03:03:16;2.73;;;1.80;;
31182;SDS011;17813;0.000;0.000;2022-09-17T11:00:41;6.33;;;2.00;;
31182;SDS011;17813;0.000;0.000;2022-09-17T11:09:01;4.03;;;1.70;;
31182;SDS011;17813;0.000;0.000;2022-09-17T11:17:34;6.97;;;2.17;;
31182;SDS011;17813;0.000;0.000;2022-09-17T11:20:20;7.33;;;2.50;;
31182;SDS011;17813;0.000;0.000;2022-09-17T11:22:54;6.23;;;2.20;;
31182;SDS011;17813;0.000;0.000;2022-09-17T11:25:41;7.47;;;1.93;;
31182;SDS011;17813;0.000;0.000;2022-09-17T11:42:28;6.17;;;2.00;;
31182;SDS011;17813;0.000;0.000;2022-09-17T11:45:03;7.73;;;2.30;;
31182;SDS011;17813;0.000;0.000;2022-09-17T11:48:06;6.63;;;2.00;;
31182;SDS011;17813;0.000;0.000;2022-09-17T11:50:31;4.17;;;1.47;;
31182;SDS011;17813;0.000;0.000;2022-09-17T11:56:13;3.83;;;1.50;;
31182;SDS011;17813;0.000;0.000;2022-09-17T12:06:39;4.27;;;1.50;;
31182;SDS011;17813;0.000;0.000;2022-09-17T12:09:14;4.60;;;1.80;;
31182;SDS011;17813;0.000;0.000;2022-09-17T12:14:26;3.57;;;1.57;;
31182;SDS011;17813;0.000;0.000;2022-09-17T12:17:20;7.40;;;1.90;;
31182;SDS011;17813;0.000;0.000;2022-09-17T12:19:55;3.93;;;1.70;;
31182;SDS011;17813;0.000;0.000;2022-09-17T12:22:28;5.83;;;2.00;;
31182;SDS011;17813;0.000;0.000;2022-09-17T12:24:58;4.73;;;1.90;;
31182;SDS011;17813;0.000;0.000;2022-09-17T12:27:31;4.70;;;1.70;;
31182;SDS011;17813;0.000;0.000;2022-09-17T12:30:12;4.57;;;1.83;;
31182;SDS011;17813;0.000;0.000;2022-09-17T12:35:55;5.97;;;1.93;;
31182;SDS011;17813;0.000;0.000;2022-09-17T12:38:42;4.83;;;1.90;;
31182;SDS011;17813;0.000;0.000;2022-09-17T12:47:33;4.13;;;1.63;;
31182;SDS011;17813;0.000;0.000;2022-09-17T12:50:40;4.67;;;1.70;;
31182;SDS011;17813;0.000;0.000;2022-09-17T12:53:22;5.23;;;1.90;;
31182;SDS011;17813;0.000;0.000;2022-09-17T12:56:04;3.40;;;1.37;;
31182;SDS011;17813;0.000;0.000;2022-09-17T12:59:05;2.47;;;1.20;;
31182;SDS011;17813;0.000;0.000;2022-09-17T13:01:48;3.83;;;1.30;;
31182;SDS011;17813;0.000;0.000;2022-09-17T13:20:52;3.13;;;1.50;;
31182;SDS011;17813;0.000;0.000;2022-09-17T13:23:33;4.30;;;1.47;;
31182;SDS011;17813;0.000;0.000;2022-09-17T13:26:10;4.77;;;1.47;;
31182;SDS011;17813;0.000;0.000;2022-09-17T13:28:51;6.37;;;1.70;;
31182;SDS011;17813;0.000;0.000;2022-09-17T13:31:21;4.03;;;1.87;;
31182;SDS011;17813;0.000;0.000;2022-09-17T13:42:17;5.30;;;1.47;;
31182;SDS011;17813;0.000;0.000;2022-09-17T13:45:03;3.20;;;1.20;;
31182;SDS011;17813;0.000;0.000;2022-09-17T13:47:56;2.63;;;1.50;;
31182;SDS011;17813;0.000;0.000;2022-09-17T13:50:34;3.03;;;1.40;;
31182;SDS011;17813;0.000;0.000;2022-09-17T13:55:43;2.60;;;1.10;;
31182;SDS011;17813;0.000;0.000;2022-09-17T13:58:33;3.03;;;1.50;;
31182;SDS011;17813;0.000;0.000;2022-09-17T14:08:49;5.13;;;1.37;;
31182;SDS011;17813;0.000;0.000;2022-09-17T14:13:54;3.63;;;1.40;;
31182;SDS011;17813;0.000;0.000;2022-09-17T14:32:21;2.27;;;1.00;;
31182;SDS011;17813;0.000;0.000;2022-09-17T14:35:03;2.00;;;1.07;;
31182;SDS011;17813;0.000;0.000;2022-09-17T14:37:41;1.80;;;1.13;;
31182;SDS011;17813;0.000;0.000;2022-09-17T14:40:10;2.57;;;0.80;;
31182;SDS011;17813;0.000;0.000;2022-09-17T14:42:42;3.97;;;1.20;;
31182;SDS011;17813;0.000;0.000;2022-09-17T14:50:52;2.33;;;0.97;;
31182;SDS011;17813;0.000;0.000;2022-09-17T14:53:38;2.03;;;0.90;;
31182;SDS011;17813;0.000;0.000;2022-09-17T14:56:06;1.70;;;0.80;;
31182;SDS011;17813;0.000;0.000;2022-09-17T14:58:41;2.00;;;1.03;;
31182;SDS011;17813;0.000;0.000;2022-09-17T15:01:20;3.30;;;0.87;;
31182;SDS011;17813;0.000;0.000;2022-09-17T15:03:49;1.83;;;0.87;;
31182;SDS011;17813;0.000;0.000;2022-09-17T15:07:08;2.33;;;1.10;;
31182;SDS011;17813;0.000;0.000;2022-09-17T15:09:37;1.97;;;0.97;;
31182;SDS011;17813;0.000;0.000;2022-09-17T15:12:04;3.47;;;1.30;;
31182;SDS011;17813;0.000;0.000;2022-09-17T15:14:33;1.43;;;0.80;;
31182;SDS011;17813;0.000;0.000;2022-09-17T15:17:04;2.87;;;1.10;;
31182;SDS011;17813;0.000;0.000;2022-09-17T15:19:38;1.37;;;0.70;;
31182;SDS011;17813;0.000;0.000;2022-09-17T15:22:12;1.83;;;0.87;;
31182;SDS011;17813;0.000;0.000;2022-09-17T15:24:59;3.77;;;1.10;;
31182;SDS011;17813;0.000;0.000;2022-09-17T15:27:36;1.83;;;0.80;;
31182;SDS011;17813;0.000;0.000;2022-09-17T15:30:13;4.27;;;1.30;;
31182;SDS011;17813;0.000;0.000;2022-09-17T15:32:47;2.33;;;1.00;;
31182;SDS011;17813;0.000;0.000;2022-09-17T15:37:49;2.70;;;1.10;;
31182;SDS011;17813;0.000;0.000;2022-09-17T15:40:37;1.70;;;0.80;;
31182;SDS011;17813;0.000;0.000;2022-09-17T15:45:53;6.20;;;1.30;;
31182;SDS011;17813;0.000;0.000;2022-09-17T15:51:03;2.80;;;1.10;;
31182;SDS011;17813;0.000;0.000;2022-09-17T15:53:37;2.53;;;0.90;;
31182;SDS011;17813;0.000;0.000;2022-09-17T15:56:15;2.13;;;1.10;;
31182;SDS011;17813;0.000;0.000;2022-09-17T16:08:48;3.20;;;1.37;;
31182;SDS011;17813;0.000;0.000;2022-09-17T16:11:19;2.87;;;1.30;;
31182;SDS011;17813;0.000;0.000;2022-09-17T16:13:56;3.30;;;1.00;;
31182;SDS011;17813;0.000;0.000;2022-09-17T16:16:31;4.27;;;1.40;;
31182;SDS011;17813;0.000;0.000;2022-09-17T16:19:00;3.17;;;1.20;;
31182;SDS011;17813;0.000;0.000;2022-09-17T16:21:27;3.07;;;1.43;;
31182;SDS011;17813;0.000;0.000;2022-09-17T16:23:54;3.17;;;1.17;;
31182;SDS011;17813;0.000;0.000;2022-09-17T16:26:27;2.93;;;1.17;;
31182;SDS011;17813;0.000;0.000;2022-09-17T16:29:03;1.63;;;0.97;;
31182;SDS011;17813;0.000;0.000;2022-09-17T16:31:35;3.30;;;1.30;;
31182;SDS011;17813;0.000;0.000;2022-09-17T16:34:02;2.33;;;1.27;;
31182;SDS011;17813;0.000;0.000;2022-09-17T16:36:29;2.03;;;0.90;;
31182;SDS011;17813;0.000;0.000;2022-09-17T16:38:57;2.23;;;1.00;;
31182;SDS011;17813;0.000;0.000;2022-09-17T16:41:24;2.37;;;1.20;;
31182;SDS011;17813;0.000;0.000;2022-09-17T16:43:51;2.53;;;1.40;;
31182;SDS011;17813;0.000;0.000;2022-09-17T16:46:18;3.70;;;1.37;;
31182;SDS011;17813;0.000;0.000;2022-09-17T16:48:48;2.83;;;1.20;;
31182;SDS011;17813;0.000;0.000;2022-09-17T16:51:14;2.40;;;1.20;;
31182;SDS011;17813;0.000;0.000;2022-09-17T16:53:42;2.50;;;1.27;;
31182;SDS011;17813;0.000;0.000;2022-09-17T16:56:09;3.03;;;1.23;;
31182;SDS011;17813;0.000;0.000;2022-09-17T16:58:39;4.30;;;1.60;;
31182;SDS011;17813;0.000;0.000;2022-09-17T17:01:07;2.13;;;1.30;;
31182;SDS011;17813;0.000;0.000;2022-09-17T17:03:35;1.53;;;0.60;;
31182;SDS011;17813;0.000;0.000;2022-09-17T17:06:02;2.67;;;1.03;;
31182;SDS011;17813;0.000;0.000;2022-09-17T17:08:32;1.67;;;0.87;;
31182;SDS011;17813;0.000;0.000;2022-09-17T17:10:59;1.50;;;0.70;;
31182;SDS011;17813;0.000;0.000;2022-09-17T17:13:26;1.63;;;0.80;;
31182;SDS011;17813;0.000;0.000;2022-09-17T17:15:53;1.10;;;0.70;;
31182;SDS011;17813;0.000;0.000;2022-09-17T17:18:20;1.47;;;0.90;;
31182;SDS011;17813;0.000;0.000;2022-09-17T17:20:47;3.23;;;0.80;;
31182;SDS011;17813;0.000;0.000;2022-09-17T17:23:15;1.73;;;0.90;;
31182;SDS011;17813;0.000;0.000;2022-09-17T17:25:42;1.57;;;0.73;;
31182;SDS011;17813;0.000;0.000;2022-09-17T17:28:08;1.43;;;0.80;;
31182;SDS011;17813;0.000;0.000;2022-09-17T17:30:36;4.07;;;1.10;;
31182;SDS011;17813;0.000;0.000;2022-09-17T17:33:03;2.63;;;1.10;;
31182;SDS011;17813;0.000;0.000;2022-09-17T17:35:29;1.70;;;0.73;;
31182;SDS011;17813;0.000;0.000;2022-09-17T17:37:57;2.07;;;0.90;;
31182;SDS011;17813;0.000;0.000;2022-09-17T17:40:23;2.00;;;0.63;;
31182;SDS011;17813;0.000;0.000;2022-09-17T17:42:51;2.47;;;0.97;;
31182;SDS011;17813;0.000;0.000;2022-09-17T17:45:17;2.63;;;0.83;;
31182;SDS011;17813;0.000;0.000;2022-09-17T17:47:44;1.20;;;0.80;;
31182;SDS011;17813;0.000;0.000;2022-09-17T17:50:11;1.80;;;0.93;;
31182;SDS011;17813;0.000;0.000;2022-09-17T17:52:40;1.73;;;1.10;;
31182;SDS011;17813;0.000;0.000;2022-09-17T17:55:12;2.07;;;1.50;;
31182;SDS011;17813;0.000;0.000;2022-09-17T17:57:40;2.07;;;1.30;;
31182;SDS011;17813;0.000;0.000;2022-09-17T18:00:07;2.23;;;1.13;;
31182;SDS011;17813;0.000;0.000;2022-09-17T18:02:36;1.40;;;1.17;;
31182;SDS011;17813;0.000;0.000;2022-09-17T18:05:03;3.70;;;1.53;;
31182;SDS011;17813;0.000;0.000;2022-09-17T18:07:30;2.43;;;1.20;;
31182;SDS011;17813;0.000;0.000;2022-09-17T18:09:58;1.00;;;0.90;;
31182;SDS011;17813;0.000;0.000;2022-09-17T18:12:25;1.43;;;1.00;;
31182;SDS011;17813;0.000;0.000;2022-09-17T18:14:52;1.43;;;1.00;;
31182;SDS011;17813;0.000;0.000;2022-09-17T18:17:19;1.73;;;1.00;;
31182;SDS011;17813;0.000;0.000;2022-09-17T18:19:46;1.03;;;0.90;;
31182;SDS011;17813;0.000;0.000;2022-09-17T18:22:12;1.30;;;0.97;;
31182;SDS011;17813;0.000;0.000;2022-09-17T18:24:39;0.93;;;0.83;;
31182;SDS011;17813;0.000;0.000;2022-09-17T18:27:06;1.73;;;1.23;;
31182;SDS011;17813;0.000;0.000;2022-09-17T18:29:33;2.37;;;1.20;;
31182;SDS011;17813;0.000;0.000;2022-09-17T18:32:00;2.40;;;1.03;;
31182;SDS011;17813;0.000;0.000;2022-09-17T18:34:27;1.40;;;0.90;;
31182;SDS011;17813;0.000;0.000;2022-09-17T18:36:54;2.07;;;0.90;;
31182;SDS011;17813;0.000;0.000;2022-09-17T18:39:20;1.80;;;0.90;;
31182;SDS011;17813;0.000;0.000;2022-09-17T18:41:47;1.83;;;0.70;;
31182;SDS011;17813;0.000;0.000;2022-09-17T18:44:14;1.17;;;0.60;;
31182;SDS011;17813;0.000;0.000;2022-09-17T18:46:43;2.53;;;0.70;;
31182;SDS011;17813;0.000;0.000;2022-09-17T18:49:12;1.07;;;0.50;;
31182;SDS011;17813;0.000;0.000;2022-09-17T18:51:39;1.03;;;0.63;;
31182;SDS011;17813;0.000;0.000;2022-09-17T18:54:05;1.67;;;0.53;;
31182;SDS011;17813;0.000;0.000;2022-09-17T18:56:33;1.00;;;0.50;;
31182;SDS011;17813;0.000;0.000;2022-09-17T18:59:01;1.43;;;0.70;;
31182;SDS011;17813;0.000;0.000;2022-09-17T19:01:28;1.80;;;0.70;;
31182;SDS011;17813;0.000;0.000;2022-09-17T19:03:56;1.80;;;0.87;;
31182;SDS011;17813;0.000;0.000;2022-09-17T19:06:24;0.87;;;0.70;;
31182;SDS011;17813;0.000;0.000;2022-09-17T19:08:52;2.57;;;1.00;;
31182;SDS011;17813;0.000;0.000;2022-09-17T19:11:20;2.30;;;0.87;;
31182;SDS011;17813;0.000;0.000;2022-09-17T19:13:47;2.00;;;0.73;;
31182;SDS011;17813;0.000;0.000;2022-09-17T19:16:14;2.40;;;0.57;;
31182;SDS011;17813;0.000;0.000;2022-09-17T19:18:42;0.73;;;0.60;;
31182;SDS011;17813;0.000;0.000;2022-09-17T19:21:12;1.97;;;0.90;;
31182;SDS011;17813;0.000;0.000;2022-09-17T19:23:41;3.23;;;0.90;;
31182;SDS011;17813;0.000;0.000;2022-09-17T19:26:10;3.10;;;0.83;;
31182;SDS011;17813;0.000;0.000;2022-09-17T19:28:43;1.40;;;0.70;;
31182;SDS011;17813;0.000;0.000;2022-09-17T19:31:10;1.33;;;0.60;;
31182;SDS011;17813;0.000;0.000;2022-09-17T19:33:41;1.33;;;0.77;;
31182;SDS011;17813;0.000;0.000;2022-09-17T19:36:09;1.33;;;0.70;;
31182;SDS011;17813;0.000;0.000;2022-09-17T19:38:38;2.40;;;0.93;;
31182;SDS011;17813;0.000;0.000;2022-09-17T19:41:06;1.80;;;0.80;;
31182;SDS011;17813;0.000;0.000;2022-09-17T19:43:37;3.77;;;1.00;;
31182;SDS011;17813;0.000;0.000;2022-09-17T19:46:06;1.40;;;0.90;;
31182;SDS011;17813;0.000;0.000;2022-09-17T19:48:45;1.90;;;0.80;;
31182;SDS011;17813;0.000;0.000;2022-09-17T19:51:18;2.47;;;0.90;;
31182;SDS011;17813;0.000;0.000;2022-09-17T19:53:46;3.63;;;1.07;;
31182;SDS011;17813;0.000;0.000;2022-09-17T19:56:15;2.73;;;0.90;;
31182;SDS011;17813;0.000;0.000;2022-09-17T19:58:43;5.27;;;1.07;;
31182;SDS011;17813;0.000;0.000;2022-09-17T20:01:11;4.13;;;1.20;;
31182;SDS011;17813;0.000;0.000;2022-09-17T20:03:38;3.23;;;1.10;;
31182;SDS011;17813;0.000;0.000;2022-09-17T20:06:07;3.17;;;1.20;;
31182;SDS011;17813;0.000;0.000;2022-09-17T20:08:36;2.47;;;0.90;;
31182;SDS011;17813;0.000;0.000;2022-09-17T20:11:09;3.67;;;1.30;;
31182;SDS011;17813;0.000;0.000;2022-09-17T20:13:36;2.77;;;1.10;;
31182;SDS011;17813;0.000;0.000;2022-09-17T20:16:10;2.60;;;1.07;;
31182;SDS011;17813;0.000;0.000;2022-09-17T20:18:38;3.27;;;1.00;;
31182;SDS011;17813;0.000;0.000;2022-09-17T20:21:05;1.20;;;0.87;;
31182;SDS011;17813;0.000;0.000;2022-09-17T20:23:33;1.10;;;1.00;;
31182;SDS011;17813;0.000;0.000;2022-09-17T20:26:01;2.33;;;1.00;;
31182;SDS011;17813;0.000;0.000;2022-09-17T20:28:30;2.13;;;0.90;;
31182;SDS011;17813;0.000;0.000;2022-09-17T20:30:58;2.30;;;0.80;;
31182;SDS011;17813;0.000;0.000;2022-09-17T20:33:29;3.43;;;1.10;;
31182;SDS011;17813;0.000;0.000;2022-09-17T20:36:00;1.23;;;0.80;;
31182;SDS011;17813;0.000;0.000;2022-09-17T20:38:29;3.27;;;1.20;;
31182;SDS011;17813;0.000;0.000;2022-09-17T20:41:02;3.73;;;1.20;;
31182;SDS011;17813;0.000;0.000;2022-09-17T20:43:31;3.33;;;1.13;;
31182;SDS011;17813;0.000;0.000;2022-09-17T20:45:59;3.17;;;1.20;;
31182;SDS011;17813;0.000;0.000;2022-09-17T20:48:28;2.90;;;1.10;;
31182;SDS011;17813;0.000;0.000;2022-09-17T20:50:59;3.03;;;1.10;;
31182;SDS011;17813;0.000;0.000;2022-09-17T20:53:28;4.50;;;1.37;;
31182;SDS011;17813;0.000;0.000;2022-09-17T20:56:05;3.57;;;1.17;;
31182;SDS011;17813;0.000;0.000;2022-09-17T20:58:34;3.37;;;1.30;;
31182;SDS011;17813;0.000;0.000;2022-09-17T21:03:33;4.87;;;1.03;;
31182;SDS011;17813;0.000;0.000;2022-09-17T21:06:03;3.53;;;1.30;;
31182;SDS011;17813;0.000;0.000;2022-09-17T21:08:33;3.80;;;1.23;;
31182;SDS011;17813;0.000;0.000;2022-09-17T21:11:03;5.73;;;1.30;;
31182;SDS011;17813;0.000;0.000;2022-09-17T21:13:29;2.07;;;1.03;;
31182;SDS011;17813;0.000;0.000;2022-09-17T21:15:59;4.20;;;1.37;;
31182;SDS011;17813;0.000;0.000;2022-09-17T21:18:27;6.40;;;1.60;;
31182;SDS011;17813;0.000;0.000;2022-09-17T21:20:54;3.23;;;1.37;;
31182;SDS011;17813;0.000;0.000;2022-09-17T21:23:24;3.80;;;1.33;;
31182;SDS011;17813;0.000;0.000;2022-09-17T21:25:52;2.77;;;1.27;;
31182;SDS011;17813;0.000;0.000;2022-09-17T21:28:35;3.70;;;1.30;;
31182;SDS011;17813;0.000;0.000;2022-09-17T21:33:38;2.30;;;1.07;;
31182;SDS011;17813;0.000;0.000;2022-09-17T21:36:07;2.70;;;1.10;;
31182;SDS011;17813;0.000;0.000;2022-09-17T21:38:52;3.20;;;1.23;;
31182;SDS011;17813;0.000;0.000;2022-09-17T21:41:21;3.93;;;1.37;;
31182;SDS011;17813;0.000;0.000;2022-09-17T21:43:48;3.87;;;1.10;;
31182;SDS011;17813;0.000;0.000;2022-09-17T21:46:21;2.77;;;1.17;;
31182;SDS011;17813;0.000;0.000;2022-09-17T21:48:52;4.30;;;1.27;;
31182;SDS011;17813;0.000;0.000;2022-09-17T21:51:21;4.47;;;1.67;;
31182;SDS011;17813;0.000;0.000;2022-09-17T21:53:54;3.97;;;1.50;;
31182;SDS011;17813;0.000;0.000;2022-09-17T21:56:22;4.80;;;1.53;;
31182;SDS011;17813;0.000;0.000;2022-09-17T21:58:50;4.83;;;1.60;;
31182;SDS011;17813;0.000;0.000;2022-09-17T22:01:20;4.33;;;1.60;;
31182;SDS011;17813;0.000;0.000;2022-09-17T22:03:49;4.30;;;1.37;;
31182;SDS011;17813;0.000;0.000;2022-09-17T22:06:20;6.40;;;1.90;;
31182;SDS011;17813;0.000;0.000;2022-09-17T22:08:48;5.03;;;1.67;;
31182;SDS011;17813;0.000;0.000;2022-09-17T22:11:17;5.93;;;1.73;;
31182;SDS011;17813;0.000;0.000;2022-09-17T22:13:53;3.60;;;1.33;;
31182;SDS011;17813;0.000;0.000;2022-09-17T22:16:21;5.20;;;1.50;;
31182;SDS011;17813;0.000;0.000;2022-09-17T22:18:51;5.50;;;1.50;;
31182;SDS011;17813;0.000;0.000;2022-09-17T22:21:22;5.80;;;1.70;;
31182;SDS011;17813;0.000;0.000;2022-09-17T22:23:51;5.60;;;1.50;;
31182;SDS011;17813;0.000;0.000;2022-09-17T22:26:20;4.03;;;1.40;;
31182;SDS011;17813;0.000;0.000;2022-09-17T22:28:49;5.33;;;1.50;;
31182;SDS011;17813;0.000;0.000;2022-09-17T22:31:21;4.57;;;1.50;;
31182;SDS011;17813;0.000;0.000;2022-09-17T22:33:48;3.97;;;1.50;;
31182;SDS011;17813;0.000;0.000;2022-09-17T22:36:17;7.20;;;1.53;;
31182;SDS011;17813;0.000;0.000;2022-09-17T22:38:50;6.60;;;1.60;;
31182;SDS011;17813;0.000;0.000;2022-09-17T22:41:19;7.17;;;1.70;;
31182;SDS011;17813;0.000;0.000;2022-09-17T22:43:59;5.70;;;1.63;;
31182;SDS011;17813;0.000;0.000;2022-09-17T22:46:28;3.77;;;1.37;;
31182;SDS011;17813;0.000;0.000;2022-09-17T22:48:57;4.47;;;1.33;;
31182;SDS011;17813;0.000;0.000;2022-09-17T22:51:25;5.07;;;1.60;;
31182;SDS011;17813;0.000;0.000;2022-09-17T22:53:54;6.23;;;1.60;;
31182;SDS011;17813;0.000;0.000;2022-09-17T22:56:22;5.73;;;1.60;;
31182;SDS011;17813;0.000;0.000;2022-09-17T22:58:49;5.97;;;1.60;;
31182;SDS011;17813;0.000;0.000;2022-09-17T23:01:18;7.07;;;2.20;;
31182;SDS011;17813;0.000;0.000;2022-09-17T23:03:47;5.17;;;1.50;;
31182;SDS011;17813;0.000;0.000;2022-09-17T23:06:19;4.93;;;1.67;;
31182;SDS011;17813;0.000;0.000;2022-09-17T23:08:48;5.63;;;1.60;;
31182;SDS011;17813;0.000;0.000;2022-09-17T23:11:26;4.10;;;1.60;;
31182;SDS011;17813;0.000;0.000;2022-09-17T23:13:55;4.70;;;1.60;;
31182;SDS011;17813;0.000;0.000;2022-09-17T23:16:26;4.20;;;1.50;;
31182;SDS011;17813;0.000;0.000;2022-09-17T23:18:57;5.47;;;1.70;;
31182;SDS011;17813;0.000;0.000;2022-09-17T23:21:24;5.10;;;1.70;;
31182;SDS011;17813;0.000;0.000;2022-09-17T23:23:51;4.80;;;1.33;;
31182;SDS011;17813;0.000;0.000;2022-09-17T23:26:19;5.93;;;1.50;;
31182;SDS011;17813;0.000;0.000;2022-09-17T23:28:48;4.87;;;1.70;;
31182;SDS011;17813;0.000;0.000;2022-09-17T23:31:21;5.27;;;1.60;;
31182;SDS011;17813;0.000;0.000;2022-09-17T23:33:49;6.00;;;1.80;;
31182;SDS011;17813;0.000;0.000;2022-09-17T23:36:18;4.40;;;1.77;;
31182;SDS011;17813;0.000;0.000;2022-09-17T23:38:51;5.73;;;1.53;;
31182;SDS011;17813;0.000;0.000;2022-09-17T23:41:20;5.70;;;1.70;;
31182;SDS011;17813;0.000;0.000;2022-09-17T23:43:48;6.33;;;2.00;;
31182;SDS011;17813;0.000;0.000;2022-09-17T23:46:17;5.00;;;1.50;;
31182;SDS011;17813;0.000;0.000;2022-09-17T23:48:45;4.77;;;1.73;;
31182;SDS011;17813;0.000;0.000;2022-09-17T23:51:12;5.37;;;1.70;;
31182;SDS011;17813;0.000;0.000;2022-09-17T23:53:41;3.60;;;1.43;;
31182;SDS011;17813;0.000;0.000;2022-09-17T23:56:11;5.33;;;1.77;;
31182;SDS011;17813;0.000;0.000;2022-09-17T23:58:40;6.70;;;1.90;;
